createdAt,value
2022-11-13T00:01:56.868Z,94706.47
2022-11-13T00:04:23.757Z,94709.19
2022-11-13T00:06:54.806Z,94699.38
2022-11-13T00:09:24.235Z,94702.94
2022-11-13T00:11:50.735Z,94689.75
2022-11-13T00:14:17.163Z,94694.50
2022-11-13T00:16:44.653Z,94677.63
2022-11-13T00:19:11.218Z,94678.16
2022-11-13T00:21:37.665Z,94676.56
2022-11-13T00:24:04.175Z,94661.03
2022-11-13T00:26:31.647Z,94690.66
2022-11-13T00:29:01.418Z,94681.72
2022-11-13T00:31:28.801Z,94690.41
2022-11-13T00:36:42.240Z,94668.09
2022-11-13T00:39:09.244Z,94656.41
2022-11-13T00:41:35.742Z,94659.41
2022-11-13T00:44:03.979Z,94672.84
2022-11-13T00:46:30.497Z,94666.72
2022-11-13T00:48:56.933Z,94656.94
2022-11-13T00:51:23.466Z,94648.53
2022-11-13T00:53:49.869Z,94665.91
2022-11-13T00:56:16.576Z,94631.38
2022-11-13T00:58:42.999Z,94650.81
2022-11-13T01:01:13.040Z,94667.22
2022-11-13T01:03:39.803Z,94667.78
2022-11-13T01:06:14.574Z,94632.47
2022-11-13T01:08:41.622Z,94648.78
2022-11-13T01:11:12.317Z,94631.34
2022-11-13T01:13:40.768Z,94658.56
2022-11-13T01:16:10.289Z,94637.09
2022-11-13T01:18:37.063Z,94635.72
2022-11-13T01:21:06.095Z,94658.31
2022-11-13T01:23:32.798Z,94647.97
2022-11-13T01:26:09.965Z,94646.06
2022-11-13T01:28:37.000Z,94650.97
2022-11-13T01:31:08.551Z,94643.22
2022-11-13T01:33:37.049Z,94615.59
2022-11-13T01:36:08.034Z,94631.09
2022-11-13T01:38:37.005Z,94627.84
2022-11-13T01:41:04.647Z,94625.13
2022-11-13T01:43:34.308Z,94600.13
2022-11-13T01:46:00.734Z,94604.75
2022-11-13T01:48:35.621Z,94602.03
2022-11-13T01:51:04.547Z,94595.09
2022-11-13T01:53:31.543Z,94582.97
2022-11-13T01:55:58.056Z,94608.53
2022-11-13T01:58:24.543Z,94597.41
2022-11-13T02:00:51.055Z,94589.50
2022-11-13T02:03:17.555Z,94573.75
2022-11-13T02:05:44.079Z,94581.38
2022-11-13T02:08:10.603Z,94573.47
2022-11-13T02:10:37.024Z,94572.63
2022-11-13T02:13:03.623Z,94595.22
2022-11-13T02:15:33.541Z,94571.69
2022-11-13T02:18:01.425Z,94542.75
2022-11-13T02:20:39.400Z,94528.59
2022-11-13T02:23:14.342Z,94576.97
2022-11-13T02:25:43.331Z,94544.63
2022-11-13T02:28:09.944Z,94545.88
2022-11-13T02:30:46.689Z,94534.59
2022-11-13T02:33:24.074Z,94553.88
2022-11-13T02:35:50.760Z,94543.81
2022-11-13T02:38:17.550Z,94551.69
2022-11-13T02:40:44.058Z,94524.81
2022-11-13T02:43:10.807Z,94525.75
2022-11-13T02:45:38.695Z,94545.06
2022-11-13T02:48:06.373Z,94537.56
2022-11-13T02:50:34.653Z,94540.56
2022-11-13T02:53:01.088Z,94508.50
2022-11-13T02:55:27.589Z,94499.81
2022-11-13T02:57:54.016Z,94429.19
2022-11-13T03:00:20.493Z,94490.00
2022-11-13T03:02:46.899Z,94506.75
2022-11-13T03:05:14.027Z,94510.41
2022-11-13T03:07:41.929Z,94516.66
2022-11-13T03:10:09.824Z,94513.38
2022-11-13T03:12:36.465Z,94484.19
2022-11-13T03:15:03.391Z,94490.84
2022-11-13T03:17:33.526Z,94520.47
2022-11-13T03:20:00.339Z,94490.28
2022-11-13T03:22:27.756Z,94504.16
2022-11-13T03:24:54.187Z,94484.31
2022-11-13T03:27:21.228Z,94495.19
2022-11-13T03:29:47.896Z,94482.16
2022-11-13T03:32:14.387Z,94504.97
2022-11-13T03:34:40.824Z,94508.78
2022-11-13T03:37:13.401Z,94477.50
2022-11-13T03:39:39.801Z,94479.53
2022-11-13T03:42:06.276Z,94475.03
2022-11-13T03:44:32.721Z,94478.59
2022-11-13T03:46:59.113Z,94474.78
2022-11-13T03:49:25.516Z,94483.75
2022-11-13T03:51:51.906Z,94469.31
2022-11-13T03:54:18.438Z,94479.38
2022-11-13T03:56:44.845Z,94479.09
2022-11-13T03:59:11.336Z,94458.75
2022-11-13T04:01:37.806Z,94453.31
2022-11-13T04:04:04.384Z,94452.22
2022-11-13T04:06:30.860Z,94472.88
2022-11-13T04:08:57.618Z,94463.38
2022-11-13T04:11:24.046Z,94472.56
2022-11-13T04:13:50.468Z,94457.41
2022-11-13T04:16:16.948Z,94458.78
2022-11-13T04:18:43.442Z,94442.88
2022-11-13T04:21:09.981Z,94441.94
2022-11-13T04:23:36.399Z,94422.41
2022-11-13T04:26:02.823Z,94428.75
2022-11-13T04:28:29.480Z,94424.31
2022-11-13T04:30:56.535Z,94416.69
2022-11-13T04:33:23.097Z,94417.22
2022-11-13T04:35:49.683Z,94412.59
2022-11-13T04:38:16.366Z,94414.09
2022-11-13T04:40:42.831Z,94423.44
2022-11-13T04:43:09.262Z,94403.91
2022-11-13T04:45:36.499Z,94424.94
2022-11-13T04:48:04.148Z,94407.97
2022-11-13T04:50:30.922Z,94401.75
2022-11-13T04:52:57.445Z,94393.31
2022-11-13T04:55:23.955Z,94412.88
2022-11-13T04:57:54.605Z,94419.94
2022-11-13T05:00:21.252Z,94376.63
2022-11-13T05:02:47.661Z,94400.81
2022-11-13T05:05:14.083Z,94410.69
2022-11-13T05:07:42.469Z,94395.22
2022-11-13T05:10:09.408Z,94420.34
2022-11-13T05:12:37.945Z,94391.69
2022-11-13T05:15:04.914Z,94385.00
2022-11-13T05:17:31.410Z,94382.75
2022-11-13T05:19:57.851Z,94392.50
2022-11-13T05:22:24.267Z,94417.22
2022-11-13T05:24:50.688Z,94392.06
2022-11-13T05:27:17.858Z,94398.97
2022-11-13T05:29:45.073Z,94404.38
2022-11-13T05:32:11.698Z,94370.66
2022-11-13T05:34:38.237Z,94373.16
2022-11-13T05:37:04.678Z,94391.84
2022-11-13T05:39:31.223Z,94389.00
2022-11-13T05:41:57.642Z,94398.66
2022-11-13T05:44:24.125Z,94373.47
2022-11-13T05:46:50.585Z,94369.09
2022-11-13T05:49:17.042Z,94375.91
2022-11-13T05:51:43.460Z,94363.19
2022-11-13T05:54:11.114Z,94390.59
2022-11-13T05:56:37.721Z,94370.22
2022-11-13T05:59:05.158Z,94362.63
2022-11-13T06:01:33.250Z,94391.53
2022-11-13T06:04:00.786Z,94377.28
2022-11-13T06:06:29.076Z,94369.72
2022-11-13T06:08:57.234Z,94371.88
2022-11-13T06:11:28.139Z,94363.72
2022-11-13T06:13:55.870Z,94366.44
2022-11-13T06:16:42.575Z,94382.59
2022-11-13T06:19:09.811Z,94375.13
2022-11-13T06:21:39.174Z,94374.28
2022-11-13T06:24:07.698Z,94379.72
2022-11-13T06:26:53.705Z,94374.28
2022-11-13T06:29:20.320Z,94383.03
2022-11-13T06:31:46.725Z,94372.13
2022-11-13T06:34:13.173Z,94356.34
2022-11-13T06:36:39.708Z,94342.50
2022-11-13T06:39:08.273Z,94378.59
2022-11-13T06:41:38.315Z,94356.34
2022-11-13T06:44:04.883Z,94353.88
2022-11-13T06:46:31.640Z,94366.69
2022-11-13T06:48:58.761Z,94364.78
2022-11-13T06:51:28.586Z,94365.31
2022-11-13T06:53:55.448Z,94356.47
2022-11-13T06:56:21.939Z,94329.22
2022-11-13T06:58:48.970Z,94347.66
2022-11-13T07:01:18.638Z,94361.78
2022-11-13T07:03:45.278Z,94348.50
2022-11-13T07:06:14.903Z,94333.72
2022-11-13T07:08:43.473Z,94319.47
2022-11-13T07:11:15.380Z,94326.00
2022-11-13T07:13:42.361Z,94331.94
2022-11-13T07:16:17.031Z,94348.25
2022-11-13T07:18:56.252Z,94332.78
2022-11-13T07:21:27.770Z,94356.91
2022-11-13T07:23:54.236Z,94316.63
2022-11-13T07:26:20.669Z,94347.66
2022-11-13T07:28:48.360Z,94333.50
2022-11-13T07:31:17.001Z,94330.84
2022-11-13T07:33:43.942Z,94346.63
2022-11-13T07:36:10.978Z,94330.28
2022-11-13T07:38:37.494Z,94321.91
2022-11-13T07:41:04.020Z,94332.47
2022-11-13T07:43:30.594Z,94328.72
2022-11-13T07:45:58.872Z,94298.84
2022-11-13T07:48:27.967Z,94313.81
2022-11-13T07:50:55.337Z,94335.38
2022-11-13T07:53:22.164Z,94335.66
2022-11-13T07:55:48.621Z,94292.94
2022-11-13T07:58:15.278Z,94334.81
2022-11-13T08:00:41.842Z,94331.47
2022-11-13T08:03:16.988Z,94308.41
2022-11-13T08:05:43.631Z,94337.16
2022-11-13T08:08:14.930Z,94291.81
2022-11-13T08:10:42.107Z,94323.84
2022-11-13T08:13:10.407Z,94305.38
2022-11-13T08:15:37.291Z,94276.63
2022-11-13T08:18:05.010Z,94295.63
2022-11-13T08:20:31.673Z,94268.22
2022-11-13T08:22:59.882Z,94286.13
2022-11-13T08:25:27.326Z,94287.19
2022-11-13T08:27:54.640Z,94298.34
2022-11-13T08:30:22.083Z,94311.63
2022-11-13T08:32:49.361Z,94320.84
2022-11-13T08:35:19.262Z,94315.41
2022-11-13T08:37:46.189Z,94310.50
2022-11-13T08:40:12.698Z,94303.03
2022-11-13T08:42:39.139Z,94300.47
2022-11-13T08:45:06.247Z,94289.00
2022-11-13T08:47:32.652Z,94289.28
2022-11-13T08:50:00.145Z,94275.59
2022-11-13T08:52:26.726Z,94287.69
2022-11-13T08:54:53.208Z,94313.22
2022-11-13T08:57:19.650Z,94320.22
2022-11-13T08:59:46.100Z,94325.38
2022-11-13T09:02:15.059Z,94317.81
2022-11-13T09:04:43.514Z,94290.34
2022-11-13T09:07:10.082Z,94297.28
2022-11-13T09:09:36.774Z,94304.38
2022-11-13T09:12:03.338Z,94315.53
2022-11-13T09:14:30.611Z,94306.63
2022-11-13T09:16:57.155Z,94290.66
2022-11-13T09:19:23.576Z,94287.81
2022-11-13T09:21:54.478Z,94293.09
2022-11-13T09:24:21.079Z,94295.09
2022-11-13T09:26:47.501Z,94309.44
2022-11-13T09:29:19.846Z,94302.19
2022-11-13T09:31:46.463Z,94311.25
2022-11-13T09:34:12.893Z,94287.63
2022-11-13T09:36:39.358Z,94290.69
2022-11-13T09:39:06.431Z,94285.53
2022-11-13T09:42:19.104Z,94321.03
2022-11-13T09:44:59.293Z,94312.09
2022-11-13T09:47:35.345Z,94285.25
2022-11-13T09:50:17.932Z,94289.22
2022-11-13T09:52:45.918Z,94293.34
2022-11-13T09:55:16.093Z,94269.72
2022-11-13T09:58:17.255Z,94290.47
2022-11-13T10:00:44.024Z,94274.81
2022-11-13T10:04:00.512Z,94281.78
2022-11-13T10:06:24.966Z,94278.22
2022-11-13T10:08:54.593Z,94236.47
2022-11-13T10:12:03.244Z,94261.69
2022-11-13T10:14:36.770Z,94246.31
2022-11-13T10:17:15.494Z,94265.34
2022-11-13T10:19:55.943Z,94241.38
2022-11-13T10:22:39.785Z,94258.81
2022-11-13T10:25:16.015Z,94254.66
2022-11-13T10:27:43.827Z,94243.94
2022-11-13T10:30:16.166Z,94231.53
2022-11-13T10:32:44.736Z,94216.78
2022-11-13T10:35:17.311Z,94236.06
2022-11-13T10:38:07.739Z,94240.22
2022-11-13T10:40:40.211Z,94225.94
2022-11-13T10:43:15.971Z,94229.09
2022-11-13T10:45:53.040Z,94215.81
2022-11-13T10:48:25.907Z,94207.34
2022-11-13T10:50:58.231Z,94175.00
2022-11-13T10:53:27.245Z,94181.75
2022-11-13T10:55:59.119Z,94187.72
2022-11-13T10:58:25.667Z,94168.34
2022-11-13T11:00:52.630Z,94183.88
2022-11-13T11:03:24.342Z,94187.19
2022-11-13T11:05:59.729Z,94161.34
2022-11-13T11:08:31.288Z,94160.97
2022-11-13T11:11:19.569Z,94136.56
2022-11-13T11:13:46.317Z,94151.06
2022-11-13T11:16:20.071Z,94144.94
2022-11-13T11:18:55.710Z,94134.56
2022-11-13T11:21:27.458Z,94149.19
2022-11-13T11:24:16.212Z,94139.78
2022-11-13T11:27:16.019Z,94141.88
2022-11-13T11:30:02.704Z,94113.53
2022-11-13T11:32:40.734Z,94130.72
2022-11-13T11:35:16.156Z,94127.13
2022-11-13T11:38:05.376Z,94132.00
2022-11-13T11:40:40.141Z,94116.44
2022-11-13T11:43:25.612Z,94131.00
2022-11-13T11:45:52.062Z,94121.09
2022-11-13T11:48:21.603Z,94092.47
2022-11-13T11:50:57.966Z,94100.19
2022-11-13T11:53:36.510Z,94096.34
2022-11-13T11:56:26.138Z,94090.13
2022-11-13T11:59:05.228Z,94082.63
2022-11-13T12:02:16.326Z,94074.16
2022-11-13T12:05:20.806Z,94077.41
2022-11-13T12:08:11.374Z,94066.03
2022-11-13T12:10:46.249Z,94066.91
2022-11-13T12:13:30.150Z,94066.81
2022-11-13T12:16:10.307Z,94082.06
2022-11-13T12:19:04.818Z,94082.38
2022-11-13T12:21:42.807Z,94063.47
2022-11-13T12:24:21.596Z,94077.19
2022-11-13T12:27:25.864Z,94053.84
2022-11-13T12:30:18.680Z,94016.59
2022-11-13T12:33:12.629Z,94049.88
2022-11-13T12:35:39.803Z,94048.34
2022-11-13T12:38:18.133Z,94058.38
2022-11-13T12:41:02.429Z,94043.09
2022-11-13T12:44:08.052Z,94046.97
2022-11-13T12:46:37.478Z,94013.94
2022-11-13T12:49:35.124Z,94030.94
2022-11-13T12:52:15.677Z,93995.97
2022-11-13T12:54:42.751Z,94009.69
2022-11-13T12:57:18.271Z,94006.69
2022-11-13T12:59:55.360Z,94007.59
2022-11-13T13:02:57.709Z,94009.00
2022-11-13T13:05:36.323Z,94018.91
2022-11-13T13:08:27.973Z,94020.78
2022-11-13T13:11:16.926Z,94006.38
2022-11-13T13:13:51.971Z,94015.59
2022-11-13T13:16:24.220Z,93984.19
2022-11-13T13:19:23.786Z,93985.28
2022-11-13T13:22:31.173Z,93989.28
2022-11-13T13:25:22.933Z,93994.81
2022-11-13T13:28:24.360Z,93991.22
2022-11-13T13:31:12.118Z,93972.34
2022-11-13T13:34:08.303Z,93998.69
2022-11-13T13:37:03.763Z,93978.88
2022-11-13T13:39:58.620Z,94001.53
2022-11-13T13:42:54.167Z,93998.97
2022-11-13T13:45:25.563Z,94006.38
2022-11-13T13:47:57.655Z,94002.91
2022-11-13T13:50:34.226Z,94023.22
2022-11-13T13:53:13.387Z,94016.69
2022-11-13T13:55:58.037Z,94019.31
2022-11-13T13:58:29.629Z,94006.31
2022-11-13T14:01:18.458Z,94003.44
2022-11-13T14:04:18.170Z,93977.41
2022-11-13T14:06:53.481Z,94010.84
2022-11-13T14:09:22.822Z,94007.75
2022-11-13T14:12:09.042Z,94006.91
2022-11-13T14:14:38.798Z,94013.03
2022-11-13T14:17:05.499Z,93996.53
2022-11-13T14:19:32.048Z,94006.22
2022-11-13T14:22:04.519Z,94015.72
2022-11-13T14:25:01.662Z,94010.19
2022-11-13T14:27:29.056Z,93989.31
2022-11-13T14:30:01.743Z,93998.66
2022-11-13T14:32:33.960Z,94011.50
2022-11-13T14:35:03.769Z,93981.00
2022-11-13T14:37:36.609Z,93989.78
2022-11-13T14:40:13.282Z,94023.13
2022-11-13T14:42:46.314Z,94017.47
2022-11-13T14:45:20.250Z,94021.19
2022-11-13T14:48:01.373Z,94029.63
2022-11-13T14:50:36.161Z,94030.06
2022-11-13T14:53:08.387Z,94004.97
2022-11-13T14:55:50.264Z,94015.19
2022-11-13T14:58:30.476Z,94004.44
2022-11-13T15:00:58.809Z,93984.13
2022-11-13T15:03:26.867Z,93997.16
2022-11-13T15:05:53.661Z,93967.25
2022-11-13T15:08:20.578Z,93964.25
2022-11-13T15:10:47.298Z,93964.31
2022-11-13T15:13:17.677Z,93989.97
2022-11-13T15:15:44.136Z,93989.38
2022-11-13T15:18:18.039Z,93949.41
2022-11-13T15:20:51.543Z,93993.78
2022-11-13T15:23:18.105Z,93973.56
2022-11-13T15:25:45.551Z,93964.53
2022-11-13T15:28:11.955Z,93972.25
2022-11-13T15:30:38.413Z,93982.31
2022-11-13T15:33:16.710Z,93984.63
2022-11-13T15:35:43.973Z,93980.72
2022-11-13T15:38:12.292Z,93966.69
2022-11-13T15:40:39.386Z,93974.91
2022-11-13T15:43:06.644Z,93967.84
2022-11-13T15:45:33.091Z,93949.41
2022-11-13T15:47:59.521Z,93985.97
2022-11-13T15:50:26.093Z,93972.72
2022-11-13T15:52:53.162Z,93951.41
2022-11-13T15:55:29.287Z,93977.94
2022-11-13T15:57:58.739Z,93969.31
2022-11-13T16:00:27.892Z,93981.50
2022-11-13T16:02:56.359Z,93942.22
2022-11-13T16:05:29.433Z,93954.03
2022-11-13T16:08:01.133Z,93958.19
2022-11-13T16:10:27.598Z,93957.91
2022-11-13T16:12:54.095Z,93972.75
2022-11-13T16:15:21.451Z,93976.38
2022-11-13T16:17:52.504Z,93976.53
2022-11-13T16:20:19.245Z,93988.38
2022-11-13T16:23:03.047Z,93981.84
2022-11-13T16:25:29.491Z,93986.63
2022-11-13T16:27:55.931Z,93970.25
2022-11-13T16:30:34.666Z,93979.38
2022-11-13T16:33:05.708Z,93968.09
2022-11-13T16:35:33.159Z,93957.44
2022-11-13T16:38:02.067Z,93961.75
2022-11-13T16:40:30.553Z,93952.00
2022-11-13T16:42:57.633Z,93973.38
2022-11-13T16:45:24.091Z,93997.38
2022-11-13T16:47:50.699Z,93960.81
2022-11-13T16:50:28.022Z,93963.38
2022-11-13T16:52:54.430Z,93987.38
2022-11-13T16:55:25.147Z,93984.06
2022-11-13T16:57:51.592Z,93973.72
2022-11-13T17:00:19.412Z,94004.81
2022-11-13T17:02:45.872Z,93998.66
2022-11-13T17:05:17.089Z,93980.50
2022-11-13T17:07:43.609Z,93990.81
2022-11-13T17:10:34.771Z,94003.50
2022-11-13T17:13:01.343Z,93988.06
2022-11-13T17:15:28.138Z,94004.88
2022-11-13T17:17:57.728Z,93975.09
2022-11-13T17:20:24.508Z,93982.88
2022-11-13T17:22:50.976Z,93963.72
2022-11-13T17:25:18.590Z,93975.72
2022-11-13T17:27:45.198Z,93980.44
2022-11-13T17:30:17.592Z,93952.31
2022-11-13T17:32:44.029Z,93944.72
2022-11-13T17:35:12.904Z,93940.50
2022-11-13T17:37:42.642Z,93952.50
2022-11-13T17:40:10.994Z,93951.22
2022-11-13T17:42:48.451Z,93945.47
2022-11-13T17:45:15.589Z,93964.41
2022-11-13T17:47:43.174Z,93973.66
2022-11-13T17:50:09.841Z,93962.50
2022-11-13T17:52:36.272Z,93974.97
2022-11-13T17:55:06.056Z,93953.31
2022-11-13T17:57:33.418Z,93952.13
2022-11-13T17:59:59.827Z,93960.22
2022-11-13T18:02:30.627Z,93967.06
2022-11-13T18:04:59.130Z,93957.19
2022-11-13T18:07:26.108Z,93936.31
2022-11-13T18:09:52.661Z,93948.59
2022-11-13T18:12:32.407Z,93972.81
2022-11-13T18:15:00.827Z,93963.44
2022-11-13T18:17:27.319Z,93949.38
2022-11-13T18:20:00.363Z,93934.38
2022-11-13T18:22:28.085Z,93941.16
2022-11-13T18:24:55.041Z,93942.75
2022-11-13T18:27:21.468Z,93907.81
2022-11-13T18:29:47.883Z,93947.25
2022-11-13T18:32:14.392Z,93889.03
2022-11-13T18:34:40.834Z,93959.97
2022-11-13T18:37:07.328Z,93936.84
2022-11-13T18:39:33.784Z,93943.31
2022-11-13T18:42:14.445Z,93978.59
2022-11-13T18:44:40.879Z,93920.09
2022-11-13T18:47:07.325Z,93960.53
2022-11-13T18:49:33.785Z,93982.50
2022-11-13T18:52:00.259Z,93977.03
2022-11-13T18:54:27.770Z,93955.00
2022-11-13T18:56:54.224Z,93964.97
2022-11-13T18:59:20.735Z,93932.47
2022-11-13T19:01:47.215Z,93957.56
2022-11-13T19:04:24.150Z,93950.63
2022-11-13T19:06:51.938Z,93984.13
2022-11-13T19:09:19.091Z,93965.03
2022-11-13T19:11:45.744Z,93965.81
2022-11-13T19:14:21.568Z,93951.13
2022-11-13T19:16:48.065Z,93957.41
2022-11-13T19:19:21.739Z,93962.28
2022-11-13T19:21:48.445Z,93930.56
2022-11-13T19:24:15.329Z,93924.56
2022-11-13T19:26:42.796Z,93958.72
2022-11-13T19:29:10.443Z,93950.91
2022-11-13T19:31:36.934Z,93937.66
2022-11-13T19:34:06.235Z,93937.31
2022-11-13T19:36:46.372Z,93936.63
2022-11-13T19:39:12.815Z,93950.06
2022-11-13T19:41:39.243Z,93921.25
2022-11-13T19:44:06.536Z,93937.56
2022-11-13T19:46:34.025Z,93911.53
2022-11-13T19:49:00.554Z,93928.63
2022-11-13T19:51:27.693Z,93936.03
2022-11-13T19:53:55.820Z,93944.09
2022-11-13T19:56:23.843Z,93894.56
2022-11-13T19:58:55.494Z,93890.50
2022-11-13T20:01:27.555Z,93892.66
2022-11-13T20:04:02.137Z,93870.00
2022-11-13T20:06:30.354Z,93913.38
2022-11-13T20:08:58.466Z,93863.66
2022-11-13T20:11:29.404Z,93917.09
2022-11-13T20:13:57.055Z,93918.56
2022-11-13T20:16:24.597Z,93874.53
2022-11-13T20:18:51.797Z,93900.75
2022-11-13T20:21:26.350Z,93910.16
2022-11-13T20:24:09.963Z,93893.59
2022-11-13T20:26:37.513Z,93912.41
2022-11-13T20:29:04.049Z,93892.69
2022-11-13T20:31:30.641Z,93913.00
2022-11-13T20:34:35.309Z,93923.97
2022-11-13T20:37:01.967Z,93915.94
2022-11-13T20:39:28.387Z,93895.47
2022-11-13T20:41:55.952Z,93896.69
2022-11-13T20:44:22.382Z,93860.56
2022-11-13T20:46:49.072Z,93869.38
2022-11-13T20:49:15.474Z,93868.69
2022-11-13T20:51:46.076Z,93861.25
2022-11-13T20:54:12.521Z,93871.63
2022-11-13T20:56:38.973Z,93892.94
2022-11-13T20:59:05.615Z,93876.06
2022-11-13T21:01:34.260Z,93885.47
2022-11-13T21:04:05.874Z,93908.38
2022-11-13T21:06:32.325Z,93902.16
2022-11-13T21:09:05.984Z,93893.38
2022-11-13T21:11:32.779Z,93926.34
2022-11-13T21:14:00.649Z,93922.75
2022-11-13T21:16:30.199Z,93912.31
2022-11-13T21:18:58.022Z,93931.34
2022-11-13T21:21:26.501Z,93903.91
2022-11-13T21:23:56.081Z,93944.41
2022-11-13T21:26:26.666Z,93915.66
2022-11-13T21:28:56.858Z,93934.59
2022-11-13T21:31:23.509Z,93926.78
2022-11-13T21:33:52.607Z,93938.59
2022-11-13T21:36:24.098Z,93930.66
2022-11-13T21:38:52.934Z,93922.81
2022-11-13T21:41:26.945Z,93905.97
2022-11-13T21:44:04.653Z,93925.19
2022-11-13T21:46:33.340Z,93922.34
2022-11-13T21:49:02.493Z,93911.97
2022-11-13T21:51:29.856Z,93912.53
2022-11-13T21:53:57.766Z,93875.44
2022-11-13T21:56:26.615Z,93906.94
2022-11-13T21:58:53.922Z,93905.28
2022-11-13T22:01:20.668Z,93890.94
2022-11-13T22:03:47.196Z,93873.50
2022-11-13T22:06:24.363Z,93905.94
2022-11-13T22:09:17.238Z,93892.34
2022-11-13T22:11:45.091Z,93872.94
2022-11-13T22:14:11.993Z,93891.94
2022-11-13T22:16:40.621Z,93893.78
2022-11-13T22:19:11.145Z,93875.91
2022-11-13T22:21:37.771Z,93868.47
2022-11-13T22:24:04.691Z,93845.78
2022-11-13T22:26:31.747Z,93850.22
2022-11-13T22:29:00.032Z,93840.69
2022-11-13T22:31:28.457Z,93867.13
2022-11-13T22:33:55.609Z,93879.84
2022-11-13T22:36:28.326Z,93862.03
2022-11-13T22:38:55.776Z,93873.38
2022-11-13T22:41:25.359Z,93862.75
2022-11-13T22:44:02.310Z,93869.75
2022-11-13T22:46:31.303Z,93833.16
2022-11-13T22:49:00.148Z,93874.31
2022-11-13T22:51:29.953Z,93843.63
2022-11-13T22:54:01.364Z,93835.84
2022-11-13T22:56:31.374Z,93854.03
2022-11-13T22:58:59.616Z,93804.56
2022-11-13T23:01:32.719Z,93870.66
2022-11-13T23:04:04.049Z,93839.06
2022-11-13T23:06:33.904Z,93834.78
2022-11-13T23:09:01.161Z,93799.00
2022-11-13T23:11:33.275Z,93845.13
2022-11-13T23:14:02.683Z,93834.88
2022-11-13T23:16:30.421Z,93859.75
2022-11-13T23:18:58.644Z,93702.47
2022-11-13T23:21:26.381Z,93739.97
2022-11-13T23:23:54.060Z,93793.81
2022-11-13T23:26:20.784Z,93804.00
2022-11-13T23:28:47.347Z,93791.22
2022-11-13T23:31:14.246Z,93666.69
2022-11-13T23:33:41.359Z,93794.47
2022-11-13T23:36:10.097Z,93726.91
2022-11-13T23:38:36.866Z,93772.34
2022-11-13T23:41:03.909Z,93776.78
2022-11-13T23:43:54.376Z,93802.72
2022-11-13T23:46:17.463Z,93824.13
2022-11-13T23:48:44.037Z,93734.41
2022-11-13T23:51:10.485Z,93796.16
2022-11-13T23:53:36.948Z,93700.06
2022-11-13T23:56:03.840Z,93796.00
2022-11-13T23:58:32.333Z,93734.41
